หน้าหลัก
METAR-TAF:

METAR-TAF

ท่าอากาศยาน :

คูราเซา, เนเธอร์แลนด์แอนทิลลิส

ละติจูด: 12-12N, ลองจิจูด: 068-58W, ความสูง: 9 ม.

การสังเกตสภาพอากาศปัจจุบัน

รายงานได้ทำขึ้นเมื่อ 1 ชั่วโมงและ 10 นาทีที่แล้ว ณ เวลา 07:00 UTC
ลม 8 นอตจากตะวันออก
อุณหภูมิ 26°C
ความชื้น 89%
ความกดอากาศ 1014 hPa
ทัศนวิสัย 10 กม. หรือมากกว่า
มีเมฆน้อยที่ความสูง 1600 ฟุต

METAR: TNCC 250700Z 10008KT 9999 FEW016 26/24 Q1014 NOSIG

เวลา: 04:10 (08:10 UTC)

การพยากรณ์

รายงานได้ทำขึ้นเมื่อ 2 ชั่วโมงและ 55 นาทีที่แล้ว ณ เวลา 05:15 UTC
การพยากรณ์มีผลตั้งแต่วันที่ 25 ณ เวลา 06 UTC จนถึงวันที่ 26 ณ เวลา 06 UTC
ลม 8 นอตจากตะวันออก
ทัศนวิสัย 10 กม. หรือมากกว่า
มีเมฆน้อยที่ความสูง 1800 ฟุต

TAF: TNCC 250515Z 2506/2606 10008KT 9999 FEW018

สังเกตการณ์สภาพอากาศและพยากรณ์อากาศของสนามบินมากกว่า 4000 แห่ง (รายงาน METAR และ TAF).

สถานีที่ดูได้จะแสดงไว้ด้วยจุดสีเหลืองและสีแดงบนแผนที่.

เลื่อนเมาส์ไปเหนือจุดเพื่อดูชื่อสถานี.

แล้วคลิกเพื่อดูสังเกตการณ์และการพยากรณ์สภาพอากาศ.

ในการเปลี่ยนแผนที่: คลิกที่ปุ่มสีเขียวที่มีกากบาทสีดำเพื่อซูมเข้า; ที่ปุ่มสีเขียวที่มีขีดเพื่อซูมออก; หรือที่ลูกศรสีเขียวเพื่อไปยังแผนที่ที่อยู่ติดกัน.


METAR-TAF: